Time;durP1;ratioP1;P1;durP2;ratioP2;P2;SDS_P1;SDS_P2;PMS_P1;PMS_P2;Temp;Humidity;BMP_temperature;BMP_pressure;BME280_temperature;BME280_humidity;BME280_pressure;Samples;Min_cycle;Max_cycle;Signal;HPM_P1;HPM_P2
2022/08/12 00:43:26;;;;;;;20.70;14.13;;;;;;;20.21;77.89;100481.53;126292;1101;104083;-80
2022/08/12 00:48:52;;;;;;;21.63;14.10;;;;;;;20.29;78.58;100492.16;125846;1099;102774;-79
2022/08/12 00:52:04;;;;;;;22.03;14.30;;;;;;;20.31;78.01;100485.03;125727;1099;102244;-79
2022/08/12 00:54:19;;;;;;;21.87;14.77;;;;;;;20.34;78.25;100485.02;126002;1102;102286;-79
2022/08/12 00:56:56;;;;;;;20.48;13.43;;;;;;;20.35;78.88;100480.56;126042;1099;102160;-79
2022/08/12 00:59:29;;;;;;;22.57;14.67;;;;;;;20.38;79.43;100485.88;126158;1102;101680;-78
2022/08/12 01:02:06;;;;;;;23.83;15.20;;;;;;;20.40;78.62;100479.66;125836;1102;101927;-78
2022/08/12 01:13:50;;;;;;;22.40;14.50;;;;;;;20.45;78.20;100474.31;126226;1098;104159;-77
2022/08/12 01:16:23;;;;;;;22.47;14.20;;;;;;;20.46;79.30;100465.44;125706;1099;102757;-79
2022/08/12 01:19:02;;;;;;;22.10;13.90;;;;;;;20.48;79.36;100464.50;125258;1101;104204;-79
2022/08/12 01:21:57;;;;;;;21.00;14.57;;;;;;;20.51;78.13;100462.73;126291;1101;102351;-79
2022/08/12 01:24:54;;;;;;;20.97;13.70;;;;;;;20.52;79.02;100454.73;125749;1102;104175;-79
2022/08/12 01:27:29;;;;;;;21.83;14.17;;;;;;;20.54;79.33;100452.06;125222;1102;102012;-79
2022/08/12 01:30:07;;;;;;;22.90;14.67;;;;;;;20.54;78.37;100450.27;127391;1098;101908;-79
2022/08/12 01:32:50;;;;;;;22.70;15.60;;;;;;;20.54;79.55;100447.61;125279;1100;101830;-78
2022/08/12 01:35:27;;;;;;;22.37;16.07;;;;;;;20.53;78.77;100448.48;125271;1099;103219;-80
2022/08/12 01:38:05;;;;;;;24.60;16.27;;;;;;;20.52;79.55;100444.08;125580;1099;104233;-79
2022/08/12 01:40:40;;;;;;;22.40;16.03;;;;;;;20.51;79.58;100447.63;126478;1098;101808;-79
2022/08/12 01:43:23;;;;;;;25.13;16.60;;;;;;;20.51;79.26;100438.75;126039;1099;104227;-79
2022/08/12 01:46:05;;;;;;;23.50;16.07;;;;;;;20.51;79.70;100441.42;126254;1100;102581;-79
2022/08/12 01:49:05;;;;;;;24.13;15.10;;;;;;;20.52;79.85;100429.84;126156;1098;101615;-79
2022/08/12 01:51:45;;;;;;;24.43;16.30;;;;;;;20.53;79.73;100426.29;125296;1099;104217;-79
2022/08/12 01:54:18;;;;;;;26.07;17.43;;;;;;;20.52;79.77;100421.84;125951;1099;101657;-79
2022/08/12 01:56:59;;;;;;;26.75;17.65;;;;;;;20.53;80.04;100423.63;125760;1102;102996;-79
2022/08/12 01:59:48;;;;;;;25.67;16.50;;;;;;;20.53;79.55;100420.96;125244;1102;109139;-79
2022/08/12 02:02:33;;;;;;;26.80;17.67;;;;;;;20.54;79.45;100420.08;126990;1098;101676;-79
2022/08/12 02:11:21;;;;;;;26.00;17.17;;;;;;;20.55;79.03;100425.36;125623;1102;103437;-79
2022/08/12 02:14:31;;;;;;;25.20;17.40;;;;;;;20.57;80.39;100428.92;125493;1102;102252;-79
2022/08/12 02:17:24;;;;;;;23.90;16.97;;;;;;;20.57;79.62;100423.59;125460;1102;104312;-79
2022/08/12 02:20:16;;;;;;;25.30;17.43;;;;;;;20.58;80.49;100420.02;126654;1099;110163;-79
2022/08/12 02:22:50;;;;;;;24.00;17.13;;;;;;;20.60;80.39;100423.58;126084;1099;104277;-79
2022/08/12 02:25:26;;;;;;;25.27;17.17;;;;;;;20.62;80.07;100420.91;125191;1102;101905;-80
2022/08/12 02:28:02;;;;;;;25.37;17.53;;;;;;;20.63;79.67;100428.89;125549;1099;102156;-79
2022/08/12 02:30:36;;;;;;;24.27;16.80;;;;;;;20.63;80.25;100427.98;125431;1099;102824;-80
2022/08/12 02:33:10;;;;;;;25.70;18.35;;;;;;;20.63;80.64;100422.65;125408;1099;102780;-80
2022/08/12 02:35:43;;;;;;;24.57;16.70;;;;;;;20.63;80.38;100433.31;125333;1099;104593;-79
2022/08/12 02:38:15;;;;;;;26.07;17.30;;;;;;;20.63;80.01;100431.55;125369;1102;102925;-79
2022/08/12 02:40:53;;;;;;;23.63;15.70;;;;;;;20.61;80.42;100432.45;125825;1102;101603;-79
2022/08/12 02:43:36;;;;;;;24.17;16.90;;;;;;;20.61;79.89;100438.66;126538;1098;104160;-79
2022/08/12 02:46:09;;;;;;;22.90;16.60;;;;;;;20.61;80.21;100435.11;125492;1099;102116;-79
2022/08/12 02:48:45;;;;;;;24.90;16.60;;;;;;;20.62;80.44;100443.10;125253;1102;102762;-79
2022/08/12 02:51:19;;;;;;;25.00;16.27;;;;;;;20.61;80.36;100432.45;125306;1099;104198;-79
2022/08/12 02:53:52;;;;;;;23.53;16.43;;;;;;;20.61;79.79;100425.33;125218;1099;102738;-80
2022/08/12 02:56:26;;;;;;;25.20;16.80;;;;;;;20.62;79.43;100431.56;125308;1099;104516;-79
2022/08/12 02:59:00;;;;;;;25.30;17.13;;;;;;;20.60;80.54;100433.33;126489;1099;104227;-80
2022/08/12 03:01:34;;;;;;;23.47;16.42;;;;;;;20.60;80.55;100426.24;125619;1099;104175;-80
2022/08/12 03:04:19;;;;;;;24.67;17.00;;;;;;;20.61;80.29;100438.66;125293;1099;102992;-80
2022/08/12 03:07:00;;;;;;;24.23;15.90;;;;;;;20.61;79.33;100437.78;125489;1099;104201;-80
2022/08/12 03:09:41;;;;;;;24.03;16.83;;;;;;;20.62;80.49;100434.23;125805;1099;102234;-80
2022/08/12 03:12:16;;;;;;;24.63;17.97;;;;;;;20.63;80.17;100427.98;126127;1099;101790;-79
2022/08/12 03:14:59;;;;;;;26.73;17.70;;;;;;;20.62;79.98;100426.23;126518;1099;104065;-79
2022/08/12 03:17:55;;;;;;;25.10;16.73;;;;;;;20.60;80.00;100436.00;126613;1098;104407;-79
2022/08/12 03:20:26;;;;;;;24.30;17.47;;;;;;;20.59;80.76;100428.92;125412;1102;104077;-80
2022/08/12 03:23:02;;;;;;;26.07;17.47;;;;;;;20.55;79.63;100419.16;125831;1102;104092;-79
2022/08/12 03:25:39;;;;;;;25.50;18.00;;;;;;;20.61;80.20;100435.98;125405;1102;101698;-80
2022/08/12 03:31:09;;;;;;;25.03;16.17;;;;;;;20.63;80.71;100427.98;126066;1102;103000;-79
2022/08/12 03:33:43;;;;;;;24.85;17.35;;;;;;;20.63;81.12;100422.65;125905;1102;101881;-79
2022/08/12 03:36:22;;;;;;;23.77;17.10;;;;;;;20.64;81.10;100424.43;125977;1102;102094;-79
2022/08/12 03:39:18;;;;;;;22.30;15.77;;;;;;;20.66;80.46;100427.99;125432;1102;104249;-80
2022/08/12 03:41:57;;;;;;;25.90;16.50;;;;;;;20.67;80.58;100418.23;125787;1102;102240;-79
2022/08/12 04:01:56;;;;;;;21.50;14.57;;;;;;;20.78;79.75;100392.38;124861;1099;102762;-79
2022/08/12 04:04:32;;;;;;;21.20;14.80;;;;;;;20.78;80.70;100403.03;125697;1099;104169;-79
2022/08/12 04:07:06;;;;;;;24.47;14.93;;;;;;;20.78;79.86;100405.70;124961;1098;104243;-79
2022/08/12 04:09:40;;;;;;;24.80;14.90;;;;;;;20.76;81.11;100395.05;124948;1099;102784;-78
2022/08/12 04:15:03;;;;;;;22.13;14.43;;;;;;;20.81;80.44;100406.55;124884;1099;104169;-79
2022/08/12 04:17:36;;;;;;;21.90;14.80;;;;;;;20.82;80.36;100404.80;124949;1099;102759;-78
2022/08/12 04:20:12;;;;;;;21.87;14.35;;;;;;;20.82;80.39;100403.00;124949;1099;104253;-78
2022/08/12 04:22:43;;;;;;;22.80;14.50;;;;;;;20.78;79.51;100403.91;125193;1099;104208;-78
2022/08/12 04:25:15;;;;;;;23.53;14.60;;;;;;;20.75;80.17;100403.94;124903;1099;104682;-78
2022/08/12 04:27:49;;;;;;;22.83;14.57;;;;;;;20.73;80.75;100397.73;124872;1099;104392;-78
2022/08/12 04:30:22;;;;;;;21.90;13.47;;;;;;;20.76;80.02;100407.51;124873;1099;102786;-78
2022/08/12 04:32:54;;;;;;;21.42;14.18;;;;;;;20.77;79.97;100403.92;124899;1099;104157;-78
2022/08/12 04:35:26;;;;;;;21.60;13.50;;;;;;;20.77;80.64;100399.50;124975;1099;104239;-77
2022/08/12 04:38:04;;;;;;;24.13;13.57;;;;;;;20.79;80.45;100392.36;124900;1099;104181;-78
2022/08/12 04:40:37;;;;;;;21.73;13.40;;;;;;;20.82;80.04;100392.33;124823;1099;104185;-77
2022/08/12 04:43:09;;;;;;;23.70;14.30;;;;;;;20.89;80.14;100397.62;124826;1099;104169;-77
2022/08/12 04:45:42;;;;;;;21.87;14.37;;;;;;;20.92;80.10;100393.13;124953;1099;104334;-78
2022/08/12 04:48:14;;;;;;;23.87;13.60;;;;;;;20.99;80.63;100396.66;124976;1099;101915;-77
2022/08/12 04:50:48;;;;;;;23.05;13.50;;;;;;;21.05;80.62;100399.27;124865;1099;102293;-77
2022/08/12 04:53:20;;;;;;;22.03;14.00;;;;;;;21.08;79.84;100396.54;124474;1099;104405;-78
2022/08/12 04:55:53;;;;;;;22.37;14.10;;;;;;;21.15;80.09;100397.39;124916;1098;104249;-78
2022/08/12 04:58:25;;;;;;;21.87;13.50;;;;;;;21.21;80.29;100396.42;124856;1099;102019;-79
2022/08/12 05:00:57;;;;;;;21.50;14.07;;;;;;;21.27;79.65;100391.03;124902;1099;104217;-78
2022/08/12 05:03:30;;;;;;;23.63;14.27;;;;;;;21.29;79.73;100392.80;124781;1099;104281;-77
2022/08/12 05:06:03;;;;;;;20.87;14.17;;;;;;;21.29;79.62;100389.25;124824;1099;104319;-77
2022/08/12 05:08:35;;;;;;;21.80;14.30;;;;;;;21.31;80.25;100393.66;124895;1099;102187;-78
2022/08/12 05:11:09;;;;;;;26.20;14.87;;;;;;;21.34;79.64;100385.62;124880;1099;104163;-79
2022/08/12 05:13:44;;;;;;;24.40;13.90;;;;;;;21.40;79.84;100384.68;125086;1099;104214;-79
2022/08/12 05:16:17;;;;;;;23.30;13.23;;;;;;;21.44;79.54;100375.75;125016;1099;104361;-79
2022/08/12 05:18:49;;;;;;;20.17;13.57;;;;;;;21.52;78.96;100381.91;125544;1099;104153;-78
2022/08/12 05:21:26;;;;;;;26.07;13.27;;;;;;;21.61;79.19;100380.03;125775;1099;104130;-78
2022/08/12 05:23:58;;;;;;;20.20;13.07;;;;;;;21.71;79.59;100384.38;125603;1099;110158;-78
2022/08/12 05:26:31;;;;;;;23.80;13.97;;;;;;;21.80;79.01;100383.36;125657;1098;104166;-78
2022/08/12 05:29:04;;;;;;;22.10;13.90;;;;;;;21.90;79.25;100380.55;125748;1099;102996;-78
2022/08/12 05:31:38;;;;;;;26.57;13.90;;;;;;;22.03;79.48;100375.95;124806;1099;104210;-77
2022/08/12 05:34:08;;;;;;;;;;;;;;;22.12;78.91;100380.27;125061;1098;104156;-79
2022/08/12 05:36:42;;;;;;;25.63;14.53;;;;;;;22.16;78.42;100370.41;125783;1099;104262;-78
2022/08/12 05:39:20;;;;;;;27.93;15.00;;;;;;;22.15;78.23;100376.68;126401;1099;104162;-80
2022/08/12 05:41:58;;;;;;;26.37;14.67;;;;;;;22.13;78.62;100375.80;125926;1099;104160;-80
2022/08/12 05:44:30;;;;;;;26.23;14.53;;;;;;;22.11;78.35;100374.95;126050;1098;107813;-79
2022/08/12 05:47:05;;;;;;;26.73;15.23;;;;;;;22.13;78.36;100387.39;125554;1099;104188;-80
2022/08/12 05:49:41;;;;;;;28.87;14.87;;;;;;;22.19;78.20;100381.96;125108;1099;104208;-80
2022/08/12 05:52:16;;;;;;;25.23;15.03;;;;;;;22.23;77.78;100389.01;125263;1102;102168;-80
2022/08/12 05:54:51;;;;;;;26.53;14.23;;;;;;;22.28;77.55;100385.40;125104;1099;119723;-79
2022/08/12 05:57:29;;;;;;;25.23;13.97;;;;;;;22.34;77.90;100391.56;125664;1099;103091;-81
2022/08/12 06:00:04;;;;;;;24.33;14.93;;;;;;;22.39;77.53;100389.73;125679;1099;102301;-80
2022/08/12 06:02:55;;;;;;;21.63;13.93;;;;;;;22.41;77.86;100387.91;125416;1099;104239;-80
2022/08/12 06:05:29;;;;;;;24.13;14.40;;;;;;;22.44;77.13;100387.86;125093;1099;102143;-79
2022/08/12 06:08:07;;;;;;;28.43;13.70;;;;;;;22.49;77.54;100398.48;125131;1102;102829;-80
2022/08/12 06:10:39;;;;;;;21.60;14.37;;;;;;;22.55;76.84;100400.20;125158;1099;104322;-80
2022/08/12 06:13:23;;;;;;;20.77;12.97;;;;;;;22.63;77.05;100402.75;125159;1099;104718;-80
2022/08/12 06:16:20;;;;;;;22.00;13.57;;;;;;;22.70;77.20;100391.91;125869;1099;110618;-80
2022/08/12 06:18:59;;;;;;;22.50;13.00;;;;;;;22.77;76.65;100398.06;125793;1098;104252;-79
2022/08/12 06:21:47;;;;;;;21.37;13.40;;;;;;;22.85;76.36;100397.94;124966;1099;102295;-79
2022/08/12 06:24:34;;;;;;;20.40;11.87;;;;;;;22.93;76.58;100396.87;125583;1099;103502;-80
2022/08/12 06:27:18;;;;;;;20.13;12.60;;;;;;;22.94;75.93;100398.66;125893;1099;104111;-79
2022/08/12 06:30:10;;;;;;;22.67;13.47;;;;;;;22.93;75.70;100396.87;126741;1098;102333;-79
2022/08/12 06:32:46;;;;;;;21.97;13.23;;;;;;;22.93;75.75;100410.26;126051;1099;104257;-79
2022/08/12 06:35:25;;;;;;;25.23;13.33;;;;;;;22.91;75.46;100401.38;127077;1098;102242;-80
2022/08/12 06:38:05;;;;;;;21.43;12.67;;;;;;;22.87;75.42;100407.68;125751;1099;104172;-81
2022/08/12 06:43:39;;;;;;;24.57;13.73;;;;;;;22.84;74.99;100404.19;125263;1098;102152;-80
2022/08/12 06:46:33;;;;;;;21.43;13.37;;;;;;;22.82;74.82;100414.91;125865;1099;104300;-82
2022/08/12 06:49:42;;;;;;;20.53;12.47;;;;;;;22.81;74.51;100426.50;126145;1099;104191;-81
2022/08/12 06:52:24;;;;;;;20.90;13.50;;;;;;;22.79;74.13;100410.48;126779;1099;102241;-79
2022/08/12 06:55:25;;;;;;;20.60;13.33;;;;;;;22.83;74.19;100411.34;125826;1097;102337;-80
2022/08/12 06:58:13;;;;;;;23.70;13.47;;;;;;;22.88;74.51;100414.81;126000;1099;104784;-79
2022/08/12 07:00:53;;;;;;;19.63;12.67;;;;;;;22.92;74.40;100416.54;126822;1098;102120;-79
2022/08/12 07:04:00;;;;;;;20.77;12.57;;;;;;;22.95;74.36;100421.84;125416;1099;102628;-82
2022/08/12 07:07:19;;;;;;;;;;;;;;;;;;;;;
2022/08/12 07:13:34;;;;;;;19.60;13.20;;;;;;;23.19;73.44;100398.27;127784;1098;101532;-83
2022/08/12 07:16:18;;;;;;;20.20;13.10;;;;;;;23.39;72.99;100399.67;126698;1099;101553;-82
2022/08/12 07:18:55;;;;;;;20.03;12.47;;;;;;;23.50;73.16;100392.34;124759;1099;102453;-81
2022/08/12 07:21:57;;;;;;;;;;;;;;;;;;;;;
2022/08/12 07:28:40;;;;;;;;;;;;;;;;;;;;;
2022/08/12 07:32:10;;;;;;;22.10;12.27;;;;;;;24.10;72.01;100387.56;127391;1098;104150;-82
2022/08/12 07:35:02;;;;;;;20.70;13.07;;;;;;;24.23;71.36;100376.55;127431;1098;103154;-80
2022/08/12 07:37:47;;;;;;;18.30;12.10;;;;;;;24.31;71.27;100367.42;126430;1099;101790;-79
2022/08/12 07:40:45;;;;;;;22.13;12.77;;;;;;;24.38;70.39;100372.61;127132;1099;101813;-78
2022/08/12 07:43:36;;;;;;;22.75;12.93;;;;;;;24.45;70.64;100372.46;126579;1099;101427;-79
2022/08/12 07:47:27;;;;;;;;;;;;;;;;;;;;;
2022/08/12 07:50:18;;;;;;;26.73;12.47;;;;;;;24.63;70.02;100381.91;127124;1098;117761;-80
2022/08/12 07:52:58;;;;;;;23.33;12.73;;;;;;;24.73;69.60;100391.52;126069;1099;102618;-79
2022/08/12 07:55:36;;;;;;;18.20;11.13;;;;;;;24.83;68.37;100392.16;124664;1099;102834;-78
2022/08/12 07:58:25;;;;;;;25.27;12.57;;;;;;;24.85;68.68;100388.50;124916;1099;102906;-79
2022/08/12 08:01:04;;;;;;;21.33;12.27;;;;;;;24.93;68.47;100397.26;126112;1099;101688;-79
2022/08/12 08:06:39;;;;;;;20.90;12.50;;;;;;;24.88;67.46;100399.16;127398;1098;101743;-80
2022/08/12 08:09:26;;;;;;;20.60;12.63;;;;;;;24.87;67.07;100384.00;126536;1099;102759;-82
2022/08/12 08:15:34;;;;;;;20.47;12.20;;;;;;;24.86;66.78;100395.64;126783;1098;102252;-81
2022/08/12 08:18:25;;;;;;;31.57;13.63;;;;;;;24.87;66.80;100396.51;126346;1099;104357;-81
2022/08/12 08:21:11;;;;;;;25.77;12.53;;;;;;;24.84;66.25;100399.27;126983;1098;102223;-82
2022/08/12 08:27:14;;;;;;;22.70;12.53;;;;;;;24.85;66.84;100398.36;127144;1099;101736;-81
2022/08/12 08:30:15;;;;;;;21.33;12.70;;;;;;;24.89;66.43;100397.38;126724;1098;104265;-81
2022/08/12 08:33:26;;;;;;;19.77;12.00;;;;;;;24.89;66.27;100405.42;127196;1099;118029;-83
2022/08/12 08:36:35;;;;;;;21.53;11.80;;;;;;;24.87;65.92;100404.56;126156;1099;102378;-81
2022/08/12 08:39:33;;;;;;;22.83;12.80;;;;;;;24.91;66.20;100408.94;127171;1098;102294;-82
2022/08/12 08:42:39;;;;;;;21.63;12.10;;;;;;;24.93;65.65;100408.00;127149;1099;101614;-80
2022/08/12 08:45:17;;;;;;;23.20;12.13;;;;;;;24.89;65.22;100411.66;126389;1099;102172;-79
2022/08/12 08:48:39;;;;;;;;;;;;;;;;;;;;;
2022/08/12 08:51:34;;;;;;;19.70;12.23;;;;;;;24.83;65.56;100400.21;125283;1102;104358;-80
2022/08/12 08:54:36;;;;;;;;;;;;;;;;;;;;;
2022/08/12 08:57:20;;;;;;;19.07;12.33;;;;;;;24.84;65.58;100407.31;124374;1099;112474;-79
2022/08/12 08:59:58;;;;;;;23.37;13.03;;;;;;;24.83;65.34;100405.58;125197;1102;104162;-80
2022/08/12 09:02:42;;;;;;;23.23;13.13;;;;;;;24.84;65.24;100404.63;125069;1099;104243;-80
2022/08/12 09:05:30;;;;;;;24.07;13.37;;;;;;;24.82;65.53;100404.67;125905;1102;102051;-81
2022/08/12 09:08:22;;;;;;;18.40;11.97;;;;;;;24.82;65.12;100407.36;125917;1101;104149;-81
2022/08/12 09:14:36;;;;;;;21.97;12.97;;;;;;;24.97;65.19;100394.50;125106;1102;102164;-81
2022/08/12 09:17:19;;;;;;;27.77;13.73;;;;;;;25.03;65.10;100397.03;125502;1102;104332;-81
2022/08/12 09:20:03;;;;;;;21.87;13.18;;;;;;;25.12;65.62;100394.10;125587;1100;103006;-80
2022/08/12 09:22:50;;;;;;;19.47;12.20;;;;;;;25.25;64.85;100386.59;125890;1099;102778;-81
2022/08/12 09:25:34;;;;;;;20.93;13.47;;;;;;;25.40;65.11;100393.37;126327;1099;102183;-81
2022/08/12 09:28:31;;;;;;;21.13;12.97;;;;;;;25.60;64.96;100387.45;126944;1098;102242;-81
2022/08/12 09:31:19;;;;;;;21.63;12.60;;;;;;;25.75;64.35;100387.02;127521;1098;102284;-80
2022/08/12 09:34:07;;;;;;;20.57;12.43;;;;;;;25.93;64.48;100377.54;126118;1098;104258;-81
2022/08/12 09:36:53;;;;;;;20.23;12.97;;;;;;;26.06;63.87;100375.39;126736;1099;101662;-81
2022/08/12 09:40:13;;;;;;;33.17;14.10;;;;;;;26.18;63.81;100368.77;126763;1098;102891;-81
2022/08/12 09:46:41;;;;;;;20.00;12.33;;;;;;;26.44;63.00;100365.22;126305;1099;103004;-80
2022/08/12 09:49:34;;;;;;;22.10;13.03;;;;;;;26.49;62.52;100354.31;127207;1099;103888;-80
2022/08/12 09:52:44;;;;;;;21.80;12.87;;;;;;;26.57;61.92;100351.38;126424;1098;101981;-80
2022/08/12 09:55:50;;;;;;;21.20;13.13;;;;;;;26.64;61.66;100355.63;125793;1102;102118;-80
2022/08/12 10:02:00;;;;;;;23.00;13.80;;;;;;;26.82;61.55;100352.36;126215;1102;103129;-79
2022/08/12 10:04:47;;;;;;;20.83;13.50;;;;;;;26.89;61.53;100353.89;125615;1102;102362;-80
2022/08/12 10:07:26;;;;;;;21.40;13.13;;;;;;;26.94;60.78;100353.73;125050;1102;104393;-80
2022/08/12 10:10:03;;;;;;;23.23;12.83;;;;;;;26.97;61.36;100345.55;125892;1102;101926;-80
2022/08/12 10:15:43;;;;;;;22.27;12.90;;;;;;;27.24;60.54;100340.14;126126;1099;101934;-80
2022/08/12 10:18:25;;;;;;;22.13;13.07;;;;;;;27.34;60.14;100340.72;125255;1102;104163;-80
2022/08/12 10:20:58;;;;;;;21.20;12.83;;;;;;;27.36;58.95;100334.34;126917;1098;101808;-80
2022/08/12 10:23:31;;;;;;;23.00;12.63;;;;;;;27.40;59.34;100329.72;125695;1099;102233;-80
2022/08/12 10:31:52;;;;;;;20.57;12.53;;;;;;;27.42;58.84;100320.62;126099;1099;101806;-81
2022/08/12 10:34:34;;;;;;;22.55;12.85;;;;;;;27.39;59.00;100326.13;125044;1099;104236;-80
2022/08/12 10:37:07;;;;;;;22.07;13.47;;;;;;;27.35;57.89;100327.19;125651;1099;102307;-80
2022/08/12 10:39:44;;;;;;;28.05;13.95;;;;;;;27.34;58.24;100319.16;124889;1099;104176;-79
2022/08/12 10:45:20;;;;;;;21.43;13.13;;;;;;;27.40;58.03;100314.42;126218;1099;104185;-81
2022/08/12 10:48:12;;;;;;;23.33;13.27;;;;;;;27.38;57.86;100318.13;126161;1099;102064;-81
2022/08/12 10:51:02;;;;;;;25.40;13.50;;;;;;;27.31;57.26;100316.55;127466;1098;102069;-80
2022/08/12 10:53:42;;;;;;;24.13;13.40;;;;;;;27.12;57.47;100314.52;126478;1099;101623;-81
2022/08/12 10:56:18;;;;;;;23.47;13.67;;;;;;;27.01;57.48;100320.28;126773;1098;102778;-82
2022/08/12 10:58:57;;;;;;;20.77;13.17;;;;;;;26.85;57.92;100321.78;125854;1099;102663;-82
2022/08/12 11:01:34;;;;;;;23.50;13.57;;;;;;;26.77;58.59;100321.14;126360;1099;101736;-83
2022/08/12 11:07:23;;;;;;;23.63;12.93;;;;;;;26.60;58.18;100333.34;125824;1098;102442;-81
2022/08/12 11:10:08;;;;;;;22.27;13.87;;;;;;;26.47;58.32;100321.20;126218;1099;103119;-81
2022/08/12 11:13:07;;;;;;;22.27;12.90;;;;;;;26.37;58.24;100332.27;126657;1098;104077;-82
2022/08/12 11:16:06;;;;;;;21.30;12.87;;;;;;;26.26;58.10;100333.56;127670;1098;101483;-83
2022/08/12 11:21:54;;;;;;;21.87;13.37;;;;;;;26.27;58.88;100314.69;126220;1099;101649;-79
2022/08/12 11:24:38;;;;;;;21.77;11.83;;;;;;;26.37;58.46;100316.13;125910;1099;104371;-79
2022/08/12 11:27:12;;;;;;;21.97;13.30;;;;;;;26.42;58.82;100312.42;126149;1101;101840;-80
2022/08/12 11:29:58;;;;;;;21.47;13.63;;;;;;;26.44;58.50;100307.86;125264;1102;104409;-79
2022/08/12 11:32:51;;;;;;;22.13;13.53;;;;;;;26.43;58.61;100316.85;126109;1099;102258;-79
2022/08/12 11:35:40;;;;;;;21.00;13.00;;;;;;;26.48;58.65;100310.40;125801;1102;104386;-79
2022/08/12 11:38:14;;;;;;;22.60;13.47;;;;;;;26.55;58.12;100313.75;126548;1098;102977;-80
2022/08/12 11:40:55;;;;;;;24.45;13.55;;;;;;;26.60;58.52;100306.43;125549;1099;102996;-78
2022/08/12 11:43:39;;;;;;;20.80;13.33;;;;;;;26.72;58.68;100299.77;125503;1102;102131;-79
2022/08/12 11:46:19;;;;;;;22.27;13.27;;;;;;;26.85;57.97;100294.86;125639;1101;101969;-79
2022/08/12 11:52:31;;;;;;;24.43;13.83;;;;;;;26.94;58.47;100290.94;125809;1102;119764;-80
2022/08/12 11:55:24;;;;;;;24.50;13.53;;;;;;;26.94;57.96;100296.33;125757;1105;101824;-80
2022/08/12 11:58:06;;;;;;;20.40;12.90;;;;;;;26.90;58.01;100293.74;125529;1102;104236;-79
2022/08/12 12:00:48;;;;;;;24.27;13.03;;;;;;;26.90;58.40;100296.44;125688;1102;102271;-80
2022/08/12 12:03:26;;;;;;;23.87;13.80;;;;;;;26.86;58.26;100296.59;125635;1102;102611;-80
2022/08/12 12:06:11;;;;;;;23.43;13.50;;;;;;;26.81;58.04;100285.98;126041;1105;102406;-79
2022/08/12 12:08:57;;;;;;;24.27;13.50;;;;;;;26.82;58.47;100287.76;125287;1105;104362;-79
2022/08/12 12:11:47;;;;;;;24.00;13.97;;;;;;;26.85;58.19;100281.40;125987;1102;101790;-79
2022/08/12 12:14:31;;;;;;;23.23;14.30;;;;;;;26.96;58.60;100289.97;125508;1105;104271;-78
2022/08/12 12:17:19;;;;;;;24.33;13.70;;;;;;;27.06;58.29;100287.81;125269;1102;105165;-80
2022/08/12 12:20:23;;;;;;;19.97;12.50;;;;;;;27.18;58.38;100295.45;126214;1105;102856;-80
2022/08/12 12:23:27;;;;;;;21.73;13.03;;;;;;;27.32;57.93;100294.11;124962;1103;107916;-81
2022/08/12 12:26:17;;;;;;;22.87;11.40;;;;;;;27.32;57.53;100296.80;126212;1102;101593;-79
2022/08/12 12:29:09;;;;;;;20.30;11.30;;;;;;;27.32;57.32;100289.59;126096;1102;104111;-81
2022/08/12 12:31:43;;;;;;;23.47;12.03;;;;;;;27.36;57.03;100291.25;125931;1099;101814;-80
2022/08/12 12:34:25;;;;;;;18.37;11.67;;;;;;;27.40;57.30;100290.17;125837;1099;104208;-80
2022/08/12 12:37:21;;;;;;;20.63;10.27;;;;;;;27.32;55.76;100289.59;126293;1102;101941;-79
2022/08/12 12:39:59;;;;;;;19.87;11.07;;;;;;;27.34;55.77;100292.23;127136;1099;101759;-79
2022/08/12 12:42:38;;;;;;;17.93;10.90;;;;;;;27.33;55.17;100287.77;126439;1099;101921;-80
2022/08/12 12:45:31;;;;;;;20.97;10.93;;;;;;;27.32;55.01;100272.56;127229;1098;101543;-80
2022/08/12 12:48:24;;;;;;;15.73;9.43;;;;;;;27.32;55.43;100272.56;125947;1100;103590;-80
2022/08/12 12:51:18;;;;;;;20.33;10.70;;;;;;;27.36;54.32;100261.61;126674;1098;104338;-80
2022/08/12 12:53:53;;;;;;;19.33;10.73;;;;;;;27.40;54.44;100257.84;126327;1099;102266;-80
2022/08/12 12:56:32;;;;;;;20.43;11.17;;;;;;;27.49;54.76;100264.71;126057;1099;104274;-82
2022/08/12 12:59:27;;;;;;;21.87;10.90;;;;;;;27.58;53.97;100267.05;126634;1098;101987;-82
2022/08/12 13:02:25;;;;;;;23.30;11.00;;;;;;;27.67;53.79;100259.54;125752;1099;102191;-82
2022/08/12 13:05:10;;;;;;;19.53;10.77;;;;;;;27.73;53.83;100260.17;127134;1099;101675;-80
2022/08/12 13:07:59;;;;;;;18.70;10.88;;;;;;;27.82;53.72;100260.77;127278;1099;101700;-80
2022/08/12 13:11:15;;;;;;;17.90;10.53;;;;;;;27.91;53.31;100255.88;127573;1098;101594;-80
2022/08/12 13:14:15;;;;;;;19.97;10.90;;;;;;;28.03;52.96;100253.65;125723;1099;104235;-81
2022/08/12 13:17:20;;;;;;;17.73;11.10;;;;;;;28.14;52.71;100248.68;125881;1099;104302;-82
2022/08/12 13:20:18;;;;;;;18.07;10.90;;;;;;;28.22;51.78;100251.96;127276;1098;101987;-81
2022/08/12 13:22:59;;;;;;;18.97;10.77;;;;;;;28.23;52.61;100242.91;127247;1098;102672;-82
2022/08/12 13:25:54;;;;;;;19.63;10.80;;;;;;;28.23;51.97;100244.73;126939;1098;104213;-81
2022/08/12 13:28:44;;;;;;;21.37;10.43;;;;;;;28.19;51.88;100238.60;127271;1098;101651;-81
2022/08/12 13:31:40;;;;;;;17.97;11.27;;;;;;;28.09;51.82;100232.69;126794;1099;102404;-80
2022/08/12 13:34:20;;;;;;;20.00;10.97;;;;;;;28.05;51.85;100235.58;125833;1099;103257;-80
2022/08/12 13:37:01;;;;;;;21.03;12.17;;;;;;;28.05;52.28;100235.58;125772;1099;102341;-79
2022/08/12 13:40:39;;;;;;;20.73;12.10;;;;;;;28.04;52.61;100242.80;126278;1099;101889;-81
2022/08/12 13:46:40;;;;;;;20.80;11.83;;;;;;;27.85;53.31;100239.95;125764;1099;104326;-79
2022/08/12 13:52:51;;;;;;;23.43;12.00;;;;;;;27.67;53.52;100252.32;125798;1098;104230;-80
2022/08/12 13:55:35;;;;;;;21.97;13.00;;;;;;;27.56;54.06;100259.95;125432;1099;110519;-80
2022/08/12 13:58:25;;;;;;;32.17;15.83;;;;;;;27.19;56.37;100256.82;125677;1099;104147;-79
2022/08/12 14:00:57;;;;;;;26.03;13.87;;;;;;;26.26;57.40;100250.20;127147;1098;104127;-77
2022/08/12 14:03:29;;;;;;;23.30;14.30;;;;;;;25.61;58.02;100249.52;126747;1098;102487;-78
2022/08/12 14:06:03;;;;;;;23.00;14.23;;;;;;;25.12;59.58;100250.01;127759;1097;101599;-77
2022/08/12 14:08:44;;;;;;;23.03;14.47;;;;;;;24.76;60.05;100239.38;126745;1098;104172;-77
2022/08/12 14:11:30;;;;;;;22.60;15.43;;;;;;;24.59;60.91;100241.64;126456;1098;101526;-79
2022/08/12 14:14:05;;;;;;;24.57;15.80;;;;;;;24.39;61.58;100245.66;126491;1098;102568;-78
2022/08/12 14:16:39;;;;;;;24.47;15.97;;;;;;;24.27;62.22;100243.30;126029;1099;104063;-78
2022/08/12 14:19:18;;;;;;;24.77;17.03;;;;;;;24.19;62.41;100242.61;125775;1099;102231;-78
2022/08/12 14:21:52;;;;;;;25.90;16.93;;;;;;;24.15;62.87;100254.31;125423;1099;102630;-77
2022/08/12 14:24:41;;;;;;;27.93;16.03;;;;;;;24.18;62.95;100249.78;125854;1098;105552;-78
2022/08/12 14:27:27;;;;;;;28.63;18.03;;;;;;;24.27;64.20;100248.66;125811;1098;104204;-79
2022/08/12 14:30:04;;;;;;;25.70;17.93;;;;;;;24.35;64.24;100256.51;125738;1099;102810;-79
2022/08/12 14:32:41;;;;;;;28.07;18.23;;;;;;;24.41;64.71;100242.95;125854;1098;104166;-78
2022/08/12 14:35:19;;;;;;;33.17;19.63;;;;;;;24.46;65.15;100248.19;125722;1099;104073;-79
2022/08/12 14:37:53;;;;;;;27.53;17.57;;;;;;;24.50;65.56;100248.08;126033;1099;104189;-78